This is the latest recevied weather packets stored in our database for station/object KF0WJA. If no packets are shown the sender has not sent any weather packets the latest 10 day(s).
| Time | Temp. | Humidity | Pressure | Rain* | Wind** | Luminosity | Snow |
|---|---|---|---|---|---|---|---|
| 1787609563 | 31.67° C | 59% | 1015 hPa | 0 mm | - | 409 W/m² | - |
| 1787609263 | 31.67° C | 59% | 1015.2 hPa | 0 mm | - | 424 W/m² | - |
| 1787608963 | 32.22° C | 57% | 1015 hPa | 0 mm | - | 428 W/m² | - |
| 1787608658 | 31.11° C | 59% | 1015.1 hPa | 0 mm | - | 433 W/m² | - |
| 1787608352 | 31.67° C | 60% | 1015 hPa | 0 mm | - | 469 W/m² | - |
| 1787608050 | 31.67° C | 59% | 1015.2 hPa | 0 mm | - | 483 W/m² | - |
| 1787607746 | 31.67° C | 59% | 1015 hPa | 0 mm | - | 459 W/m² | - |
| 1787607443 | 32.22° C | 58% | 1014.8 hPa | 0 mm | - | 493 W/m² | - |
| 1787607139 | 31.67° C | 59% | 1014.9 hPa | 0 mm | - | 496 W/m² | - |
| 1787606840 | 31.67° C | 58% | 1014.8 hPa | 0 mm | - | 480 W/m² | - |
| 1787606538 | 31.67° C | 59% | 1014.8 hPa | 0 mm | - | 529 W/m² | - |
| 1787606237 | 31.11° C | 60% | 1015.1 hPa | 0 mm | - | 523 W/m² | - |
| 1787605937 | 31.67° C | 59% | 1015 hPa | 0 mm | - | 549 W/m² | - |
| 1787605636 | 31.67° C | 59% | 1015 hPa | 0 mm | - | 564 W/m² | - |
| 1787605332 | 31.67° C | 59% | 1015 hPa | 0 mm | - | 536 W/m² | - |
| 1787605027 | 31.67° C | 58% | 1014.9 hPa | 0 mm | - | 586 W/m² | - |
| 1787604726 | 31.67° C | 59% | 1014.9 hPa | 0 mm | - | 627 W/m² | - |
| 1787604422 | 32.22° C | 56% | 1015 hPa | 0 mm | - | 642 W/m² | - |
| 1787604122 | 32.22° C | 56% | 1015 hPa | 0 mm | - | 666 W/m² | - |
| 1787603822 | 32.22° C | 56% | 1015.2 hPa | 0 mm | - | 681 W/m² | - |
| 1787603517 | 32.22° C | 55% | 1015.1 hPa | 0 mm | - | 652 W/m² | - |
| 1787603212 | 32.22° C | 55% | 1015.1 hPa | 0 mm | - | 678 W/m² | - |
| 1787602908 | 31.67° C | 56% | 1015.1 hPa | 0 mm | - | 661 W/m² | - |
| 1787602603 | 31.67° C | 58% | 1015.1 hPa | 0 mm | - | 699 W/m² | - |
| 1787602298 | 31.11° C | 59% | 1015.1 hPa | 0 mm | - | 661 W/m² | - |
* Rain latest hour (hover to see other rain measurements)
** Current wind speed in m/s (hover to see current wind gust speed)